• Join FlightAware (Why Join?)
  • Login
  • US Flag 
05:45PM EDT


 

Airport Tracker/Info


-or-


 

Live Flight TrackerFlight Track Log ✈ UAL252 ✈ 18-Jun-2013 ✈ KSAN - KIAH

Flight Track Log - Related Links

Times and Time Zones

All times are in EDT time to prevent confusion due to time zone crossing. See the UAL252 flight status page for this flight to view local times or setup timezone preferences in your user account.

Time Position Orientation Groundspeed Altitude Reporting Facility
EDT Latitude Longitude Course Direction KTS MPH feet Rate Location/Type
04:04PM 32.7500 -117.2333 90° East 162 186 1,500  Level Southern California TRACON
04:04PM 32.7519 -117.2692 274° West 190 219 2,200 1,980 Climbing Los Angeles Center
04:05PM 32.7161 -117.3192 230° Southwest 247 284 5,100 2,700 Climbing Los Angeles Center
04:06PM 32.6160 -117.0634 103° East  Level FlightAware Approximate
04:06PM 32.6572 -117.2669 143° Southeast 262 302 7,900  Level Los Angeles Center
04:07PM 32.6037 -116.9261 84° East  Level FlightAware Approximate
04:07PM 32.6408 -117.1708 101° East 298 343 10,000  Level Los Angeles Center
04:08PM 32.6163 -116.7872 84° East  Level FlightAware Approximate
04:08PM 32.6275 -117.0856 100° East 313 360 11,100  Level Los Angeles Center
04:09PM 32.6333 -116.6521 90° East  Level FlightAware Approximate
04:09PM 32.6169 -116.9108 94° East 371 427 13,400  Level Los Angeles Center
04:10PM 32.6306 -116.7819 83° East 389 448 15,500 1,860 Climbing Los Angeles Center
04:11PM 32.6431 -116.6472 84° East 401 461 17,300 1,620 Climbing Los Angeles Center
04:13PM 32.6558 -116.5078 84° East 420 483 18,900 1,500 Climbing Los Angeles Center
04:14PM 32.6692 -116.3647 84° East 440 506 20,500 1,560 Climbing Los Angeles Center
04:15PM 32.6864 -116.1881 83° East 455 524 22,100 1,440 Climbing Los Angeles Center
04:16PM 32.7006 -116.0347 84° East 468 539 23,500 1,320 Climbing Los Angeles Center
04:17PM 32.7156 -115.8781 83° East 478 550 24,900 1,200 Climbing Los Angeles Center
04:18PM 32.7297 -115.7178 84° East 489 563 26,000 1,080 Climbing Los Angeles Center
04:19PM 32.7456 -115.5536 83° East 499 574 27,200 1,200 Climbing Los Angeles Center
04:20PM 32.7531 -115.3522 87° East 511 588 28,500 1,200 Climbing Los Angeles Center
04:21PM 32.7600 -115.1803 87° East 521 600 29,700 1,140 Climbing Los Angeles Center
04:22PM 32.7639 -115.0083 88° East 522 601 30,900 1,080 Climbing Los Angeles Center
04:23PM 32.7658 -114.8725 89° East 516 594 32,000 960 Climbing Los Angeles Center
04:24PM 32.7694 -114.6669 89° East 519 597 33,000 420 Climbing Los Angeles Center
04:25PM 32.7722 -114.4639 89° East 514 592 33,000  Level Los Angeles Center
04:26PM 32.7750 -114.2586 89° East 515 593 33,000  Level Los Angeles Center
04:27PM 32.7767 -114.0889 89° East 515 593 33,000  Level Los Angeles Center
04:28PM 32.7836 -113.9189 87° East 515 593 33,000 180 Level Los Angeles Center
04:29PM 32.8097 -113.7525 79° East 512 589 33,400 720 Climbing Los Angeles Center
04:30PM 32.8331 -113.5836 81° East 518 596 34,600 720 Climbing Los Angeles Center
04:31PM 32.8561 -113.4183 81° East 509 586 35,000 180 Climbing Los Angeles Center
04:32PM 32.8828 -113.2308 80° East 509 586 35,000  Level Los Angeles Center
04:34PM 32.9103 -113.0278 81° East 512 589 35,000 300 Level Albuquerque Center
04:35PM 32.9372 -112.8258 81° East 511 588 35,800 780 Climbing Albuquerque Center
04:36PM 32.9447 -112.6578 87° East 507 583 36,700 540 Climbing Albuquerque Center
04:37PM 32.9222 -112.4922 99° East 505 581 37,000 60 Climbing Albuquerque Center
04:38PM 32.8906 -112.3267 103° East 508 585 36,900  Descending Albuquerque Center
04:39PM 32.8592 -112.1514 102° East 508 585 37,000  Climbing Albuquerque Center
04:40PM 32.8281 -111.9917 103° East 503 579 37,000  Level Albuquerque Center
04:41PM 32.7964 -111.8300 103° East 504 580 37,000  Level Albuquerque Center
04:42PM 32.7650 -111.6686 103° East 505 581 37,000  Level Albuquerque Center
04:43PM 32.7353 -111.5075 102° East 502 578 37,000  Level Albuquerque Center
04:44PM 32.7036 -111.3489 103° East 498 573 37,000  Level Albuquerque Center
04:45PM 32.6703 -111.1911 104° East 496 571 37,000  Level Albuquerque Center
04:46PM 32.6328 -110.9978 103° East 501 577 37,000  Level Albuquerque Center
04:47PM 32.6006 -110.8372 103° East 502 578 37,000  Level Albuquerque Center
04:48PM 32.5692 -110.6794 103° East 499 574 37,000  Level Albuquerque Center
04:49PM 32.5356 -110.5225 104° East 497 572 37,000  Level Albuquerque Center
04:50PM 32.5039 -110.3681 104° East 489 563 37,000  Level Albuquerque Center
04:51PM 32.4725 -110.2150 104° East 490 564 37,000  Level Albuquerque Center
04:52PM 32.4328 -110.0281 104° East 493 567 37,000  Level Albuquerque Center
04:53PM 32.3967 -109.8717 105° East 499 574 37,000  Level Albuquerque Center
04:54PM 32.3644 -109.7175 104° East 495 570 37,000  Level Albuquerque Center
04:55PM 32.3322 -109.5644 104° East 488 562 37,000  Level Albuquerque Center
04:56PM 32.3003 -109.4125 104° East 487 560 37,000  Level Albuquerque Center
04:57PM 32.2614 -109.2258 104° East 488 562 37,000  Level Albuquerque Center
04:58PM 32.2406 -109.0681 99° East 492 566 37,000  Level Albuquerque Center
04:59PM 32.2189 -108.9119 99° East 489 563 37,000  Level Albuquerque Center
05:00PM 32.1947 -108.7422 100° East 488 562 37,000  Level Albuquerque Center
05:01PM 32.1736 -108.6008 100° East 488 562 37,000  Level Albuquerque Center
05:02PM 32.1475 -108.4144 99° East 487 560 37,000  Level Albuquerque Center
05:03PM 32.1233 -108.2589 100° East 488 562 37,000 -60 Level Albuquerque Center
05:04PM 32.0983 -108.0906 100° East 486 559 36,900  Descending Albuquerque Center
05:06PM 32.0753 -107.9350 100° East 486 559 37,000  Climbing Albuquerque Center
05:07PM 32.0519 -107.7811 100° East 483 556 36,900  Descending Albuquerque Center
05:08PM 32.0292 -107.6269 100° East 481 554 37,000  Climbing Albuquerque Center
05:09PM 32.0061 -107.4731 100° East 481 554 37,000 -60 Level Albuquerque Center
05:10PM 31.9831 -107.3189 100° East 483 556 36,900  Descending Albuquerque Center
05:11PM 31.9586 -107.1653 101° East 483 556 37,000  Climbing Albuquerque Center
05:12PM 31.9294 -106.9794 100° East 484 557 36,900  Descending Albuquerque Center
05:13PM 31.9047 -106.8253 101° East 484 557 37,000  Climbing Albuquerque Center
05:14PM 31.8797 -106.6708 101° East 484 557 37,000  Level Albuquerque Center
05:15PM 31.8519 -106.5003 101° East 490 564 37,000 -60 Level Albuquerque Center
05:16PM 31.8275 -106.3411 100° East 494 568 36,900  Descending Albuquerque Center
05:17PM 31.7942 -106.1861 104° East 505 581 37,000  Climbing Albuquerque Center
05:18PM 31.7558 -106.0356 107° East 481 554 37,000 -60 Level Albuquerque Center
05:19PM 31.7183 -105.8847 106° East 482 555 36,900 -60 Descending Albuquerque Center
05:20PM 31.6808 -105.7317 106° East 486 559 36,900  Level Albuquerque Center
05:21PM 31.6436 -105.5794 106° East 487 560 37,000  Climbing Albuquerque Center
05:22PM 31.5989 -105.3967 106° East 488 562 36,900  Descending Albuquerque Center
05:23PM 31.5594 -105.2444 107° East 487 560 37,000  Climbing Albuquerque Center
05:24PM 31.5217 -105.0917 106° East 486 559 37,000 -60 Level Albuquerque Center
05:25PM 31.4842 -104.9392 106° East 486 559 36,900 -60 Descending Albuquerque Center
05:26PM 31.4453 -104.7875 107° East 485 558 36,900  Level Albuquerque Center
05:27PM 31.4069 -104.6361 106° East 483 556 36,900  Level Albuquerque Center
05:28PM 31.3672 -104.4853 107° East 483 556 36,900  Level Albuquerque Center
05:29PM 31.3303 -104.3347 106° East 483 556 36,900  Level Albuquerque Center
05:30PM 31.2914 -104.1853 107° East 481 554 36,900  Level Albuquerque Center
05:31PM 31.2431 -104.0044 107° East 484 557 37,000  Climbing Albuquerque Center
05:32PM 31.2042 -103.8550 107° East 484 557 37,000 -60 Level Albuquerque Center
05:33PM 31.1619 -103.7017 108° East 481 554 36,900 -60 Descending Albuquerque Center
05:34PM 31.1211 -103.5539 108° East 482 555 36,900  Level Albuquerque Center
05:35PM 31.0811 -103.4067 108° East 478 550 37,000  Climbing Albuquerque Center
05:36PM 31.0417 -103.2589 107° East 480 552 37,000 -60 Level Albuquerque Center
05:37PM 31.0025 -103.1142 107° East 475 547 36,900 -60 Descending Albuquerque Center
05:38PM 30.9639 -102.9697 107° East 469 540 36,900  Level Albuquerque Center
05:39PM 30.9161 -102.7972 108° East 470 541 36,900  Level Albuquerque Center
05:40PM 30.8758 -102.6519 108° East 474 545 37,000  Climbing Albuquerque Center
05:41PM 30.8369 -102.5083 107° East 472 543 36,900 -60 Descending Albuquerque Center
05:42PM 30.8081 -102.3619 103° East 474 545 36,900  Level Albuquerque Center
05:44PM 30.7925 -102.2122 97° East 474 545 36,900  Level Albuquerque Center
05:45PM 30.7728 -102.0322 97° East 473 544 36,900  Level Albuquerque Center
05:46PM 30.7561 -101.8817 97° East 472 543 37,000  Climbing Albuquerque Center
05:47PM 30.7406 -101.7300 97° East 474 545 37,000  Level Albuquerque Center
05:48PM 30.7208 -101.5369 97° East 474 545 37,000  Level Houston Center
05:49PM 30.7033 -101.3861 98° East 472 543 37,000  Level Houston Center
05:50PM 30.6861 -101.2347 97° East 473 544 37,000 -60 Level Houston Center
05:51PM 30.6472 -101.0900 107° East 475 547 36,900 -60 Descending Houston Center
05:52PM 30.5958 -100.9506 113° Southeast 471 542 36,900  Level Houston Center
05:53PM 30.5331 -100.7847 114° Southeast 467 537 36,900  Level Houston Center
05:54PM 30.4828 -100.6439 112° Southeast 471 542 37,000  Climbing Houston Center
05:55PM 30.4294 -100.5044 114° Southeast 472 543 37,000  Level Houston Center
05:56PM 30.3778 -100.3633 113° Southeast 473 544 37,000  Level Houston Center
05:57PM 30.3253 -100.2222 113° Southeast 473 544 37,000  Level Houston Center
05:58PM 30.2717 -100.0800 114° Southeast 474 545 37,000 -60 Level Houston Center
05:59PM 30.2175 -99.9397 114° Southeast 474 545 36,900 -60 Descending Houston Center
06:00PM 30.1636 -99.7986 114° Southeast 477 549 36,900  Level Houston Center
06:01PM 30.0997 -99.6306 114° Southeast 475 547 37,000  Climbing Houston Center
06:02PM 30.0461 -99.4919 114° Southeast 473 544 36,900  Descending Houston Center
06:03PM 29.9931 -99.3533 114° Southeast 471 542 37,000  Climbing Houston Center
06:04PM 29.9403 -99.2144 114° Southeast 474 545 37,000  Level Houston Center
06:05PM 29.8808 -99.0611 114° Southeast 468 539 37,000  Level Houston Center
06:06PM 29.8228 -98.9158 115° Southeast 465 535 37,000  Level Houston Center
06:08PM 29.7700 -98.7808 114° Southeast 462 532 37,000  Level Houston Center
06:09PM 29.7169 -98.6453 114° Southeast 464 534 37,000  Level Houston Center
06:10PM 29.6675 -98.4972 111° Southeast 466 536 37,000  Level Houston Center
06:11PM 29.6053 -98.3569 117° Southeast 487 560 37,000  Level Houston Center
06:12PM 29.5308 -98.2356 125° Southeast 471 542 37,000 -300 Level Houston Center
06:13PM 29.4633 -98.0950 119° Southeast 474 545 36,500 -780 Descending Houston Center
06:14PM 29.4644 -97.9442 89° East 477 549 35,500 -1,020 Descending Houston Center
06:15PM 29.4733 -97.7817 86° East 485 558 34,400 -1,020 Descending Houston Center
06:16PM 29.4808 -97.6269 87° East 487 560 33,400 -1,020 Descending Houston Center
06:17PM 29.4886 -97.4706 87° East 489 563 32,400 -960 Descending Houston Center
06:18PM 29.4958 -97.3136 87° East 491 565 31,500 -1,080 Descending Houston Center
06:19PM 29.5033 -97.1569 87° East 490 564 30,200 -1,800 Descending Houston Center
06:20PM 29.5108 -97.0003 87° East 487 560 27,900 -2,040 Descending Houston Center
06:21PM 29.5114 -96.8475 90° East 472 543 26,000 -2,040 Descending Houston Center
06:22PM 29.4572 -96.7158 115° Southeast 449 517 23,800 -2,940 Descending Houston Center
06:23PM 29.4131 -96.5894 112° Southeast 435 501 20,000 -3,840 Descending Houston Center
06:24PM 29.3839 -96.4381 102° East 407 468 15,900 -3,120 Descending Houston Center
06:25PM 29.3575 -96.3161 104° East 396 456 13,600 -1,920 Descending Houston Center
06:26PM 29.4086 -96.2219 58° Northeast 368 423 12,000 -780 Descending Houston Center
06:27PM 29.4911 -96.1889 19° North 318 366 12,000  Level Houston Center
06:28PM 29.5611 -96.1389 32° Northeast 320 368 12,000 -180 Level Houston Center
06:29PM 29.6119 -96.0367 60° Northeast 320 368 11,700 -840 Descending Houston Center
06:30PM 29.6514 -95.9578 60° Northeast 309 356 10,400 -1,380 Descending Houston Center
06:31PM 29.6986 -95.8756 57° Northeast 302 348 9,100 -840 Descending Houston Center
06:32PM 29.7511 -95.8019 51° Northeast 301 346 8,800 -960 Descending Houston Center
06:33PM 29.7994 -95.7083 59° Northeast 295 339 7,000 -1,320 Descending Houston Center
06:34PM 29.8489 -95.6342 52° Northeast 291 335 6,000 -540 Descending Houston Center
06:35PM 29.8781 -95.5561 67° East 289 333 6,000  Level Houston Center
06:36PM 29.8942 -95.4553 80° East 286 329 6,000  Level Houston Center
06:37PM 29.8950 -95.3708 89° East 247 284 6,000  Level Houston Center
06:38PM 29.8958 -95.2889 89° East 249 287 6,000 -240 Level Houston Center
06:40PM 29.8969 -95.2117 89° East 207 238 5,500 -840 Descending Houston Center
06:41PM 29.8967 -95.1394 90° East 214 246 4,300 -1,080 Descending Houston Center
06:41PM 29.8972 -95.0789 89° East 212 244 3,500 -960 Descending Houston Center
06:43PM 29.9519 -95.0578 18° North 197 227 2,400 -780 Descending Houston Center
06:43PM 29.9772 -95.1028 303° West 184 212 2,000 -480 Descending Houston Center